Time;durP1;ratioP1;P1;durP2;ratioP2;P2;SDS_P1;SDS_P2;PMS_P1;PMS_P2;Temp;Humidity;BMP_temperature;BMP_pressure;BME280_temperature;BME280_humidity;BME280_pressure;Samples;Min_cycle;Max_cycle;Signal;HPM_P1;HPM_P2
2022/08/27 00:00:21;;;;;;;6.07;2.10;;;21.50;79.50;;;;;;4998603;28;20496;-87
2022/08/27 00:02:47;;;;;;;4.75;1.92;;;21.50;79.60;;;;;;4982178;28;20483;-88
2022/08/27 00:05:15;;;;;;;5.68;2.55;;;21.50;79.80;;;;;;4982313;28;20037;-88
2022/08/27 00:07:42;;;;;;;9.23;2.67;;;21.40;79.80;;;;;;4983087;28;20045;-88
2022/08/27 00:10:12;;;;;;;5.45;2.00;;;21.40;79.90;;;;;;4995668;28;20057;-89
2022/08/27 00:12:38;;;;;;;5.05;1.98;;;21.40;80.00;;;;;;4990611;28;20081;-88
2022/08/27 00:15:06;;;;;;;6.35;1.73;;;21.40;80.10;;;;;;4949219;28;20027;-88
2022/08/27 00:21:14;;;;;;;5.20;1.67;;;21.30;80.30;;;;;;4995817;28;20021;-89
2022/08/27 00:23:40;;;;;;;3.40;1.83;;;21.20;80.40;;;;;;4986314;28;20124;-88
2022/08/27 00:26:07;;;;;;;5.57;2.10;;;21.20;80.70;;;;;;4978626;28;20061;-88
2022/08/27 00:28:34;;;;;;;5.07;2.17;;;21.10;80.40;;;;;;4963414;28;20018;-88
2022/08/27 00:30:59;;;;;;;6.53;2.38;;;21.20;80.50;;;;;;4989772;28;20031;-88
2022/08/27 00:33:26;;;;;;;4.65;1.90;;;21.10;80.50;;;;;;4985076;28;20014;-88
2022/08/27 00:35:52;;;;;;;4.72;1.80;;;21.10;80.70;;;;;;5000860;28;20025;-88
2022/08/27 00:38:20;;;;;;;6.25;1.80;;;21.10;80.80;;;;;;4986031;28;20054;-89
2022/08/27 00:40:46;;;;;;;4.22;1.70;;;21.00;80.80;;;;;;4981156;28;20468;-88
2022/08/27 00:43:12;;;;;;;3.50;1.83;;;21.00;80.90;;;;;;4982525;28;20429;-89
2022/08/27 00:45:42;;;;;;;4.20;1.85;;;21.00;81.00;;;;;;5001586;28;20025;-89
2022/08/27 00:48:11;;;;;;;5.00;1.75;;;20.90;81.10;;;;;;5002415;28;20032;-88
2022/08/27 00:50:41;;;;;;;4.40;1.65;;;20.90;81.10;;;;;;4984448;28;20046;-89
2022/08/27 00:53:14;;;;;;;4.45;1.48;;;20.90;81.20;;;;;;4983858;28;20034;-89
2022/08/27 00:55:46;;;;;;;5.97;2.28;;;20.90;81.20;;;;;;4982592;28;20048;-88
2022/08/27 00:58:22;;;;;;;4.40;1.48;;;20.80;81.20;;;;;;4991680;28;20364;-89
2022/08/27 01:00:48;;;;;;;5.30;1.58;;;20.80;81.30;;;;;;5018279;28;20467;-89
2022/08/27 01:03:14;;;;;;;5.45;1.80;;;20.80;81.40;;;;;;5000877;28;20030;-88
2022/08/27 01:05:43;;;;;;;4.28;1.70;;;20.80;81.40;;;;;;4984888;28;20129;-87
2022/08/27 01:08:13;;;;;;;3.08;1.77;;;20.80;81.50;;;;;;4996828;28;20077;-88
2022/08/27 01:10:40;;;;;;;;;;;20.70;81.60;;;;;;4997817;28;20112;-89
2022/08/27 01:13:14;;;;;;;3.38;1.33;;;20.70;81.80;;;;;;4980666;28;20375;-87
2022/08/27 01:15:41;;;;;;;3.75;1.77;;;20.70;81.80;;;;;;4976431;28;20101;-88
2022/08/27 01:18:08;;;;;;;3.92;1.80;;;20.60;81.80;;;;;;4950663;28;20038;-88
2022/08/27 01:20:49;;;;;;;3.78;1.70;;;20.60;81.90;;;;;;4980129;28;20123;-88
2022/08/27 01:23:28;;;;;;;6.63;2.30;;;20.60;82.00;;;;;;4980024;28;20580;-88
2022/08/27 01:25:54;;;;;;;4.22;1.63;;;20.60;82.70;;;;;;4988339;28;20164;-88
2022/08/27 01:28:22;;;;;;;4.50;1.90;;;20.60;82.20;;;;;;4981901;28;20022;-88
2022/08/27 01:30:48;;;;;;;3.13;1.58;;;20.60;82.30;;;;;;4995542;28;20050;-86
2022/08/27 01:33:21;;;;;;;4.65;1.60;;;20.60;82.40;;;;;;4976890;28;20034;-88
2022/08/27 01:35:49;;;;;;;5.72;1.77;;;20.60;82.40;;;;;;4960174;28;20027;-88
2022/08/27 01:38:17;;;;;;;4.80;1.90;;;20.60;82.50;;;;;;4960707;28;20042;-89
2022/08/27 01:40:43;;;;;;;6.18;1.70;;;20.60;82.60;;;;;;4970478;28;20018;-88
2022/08/27 01:43:09;;;;;;;4.03;1.90;;;20.60;82.60;;;;;;4980274;28;20400;-89
2022/08/27 01:45:39;;;;;;;6.35;2.00;;;20.60;82.70;;;;;;4976322;28;20034;-88
2022/08/27 01:48:09;;;;;;;5.43;1.77;;;20.50;82.60;;;;;;4989870;28;20028;-88
2022/08/27 01:50:38;;;;;;;4.95;1.80;;;20.50;82.70;;;;;;4979306;28;20031;-88
2022/08/27 01:53:11;;;;;;;3.70;1.67;;;20.50;82.80;;;;;;4975548;28;20019;-87
2022/08/27 01:55:38;;;;;;;3.75;1.60;;;20.50;82.80;;;;;;4959600;28;20481;-87
2022/08/27 01:58:04;;;;;;;4.10;1.80;;;20.50;82.80;;;;;;4943684;28;20121;-87
2022/08/27 02:00:35;;;;;;;5.68;2.03;;;20.50;82.80;;;;;;4961765;28;20053;-88
2022/08/27 02:03:01;;;;;;;4.95;1.80;;;20.50;82.80;;;;;;4979375;28;20105;-88
2022/08/27 02:05:28;;;;;;;5.35;1.73;;;20.50;82.80;;;;;;4978660;28;20034;-88
2022/08/27 02:07:54;;;;;;;4.80;2.00;;;20.50;82.90;;;;;;4962596;28;20022;-88
2022/08/27 02:10:31;;;;;;;6.75;1.80;;;20.50;83.00;;;;;;4979012;28;20030;-88
2022/08/27 02:12:57;;;;;;;5.00;1.83;;;20.50;83.00;;;;;;4979061;28;20026;-88
2022/08/27 02:15:24;;;;;;;3.35;1.60;;;20.50;83.00;;;;;;4980399;28;20503;-88
2022/08/27 02:17:51;;;;;;;2.92;1.42;;;20.50;83.10;;;;;;4977438;28;20056;-89
2022/08/27 02:20:17;;;;;;;7.55;1.98;;;20.40;83.20;;;;;;4964923;28;20065;-89
2022/08/27 02:22:43;;;;;;;6.60;2.10;;;20.50;83.20;;;;;;4979937;28;20046;-88
2022/08/27 02:25:12;;;;;;;3.53;1.80;;;20.40;83.10;;;;;;4961959;28;20072;-89
2022/08/27 02:27:40;;;;;;;5.63;1.85;;;20.40;83.10;;;;;;5004773;28;20033;-90
2022/08/27 02:30:07;;;;;;;5.57;1.77;;;20.40;83.20;;;;;;4980380;28;20019;-89
2022/08/27 02:32:33;;;;;;;4.82;1.92;;;20.40;83.20;;;;;;4994241;28;20083;-88
2022/08/27 02:34:59;;;;;;;5.15;1.67;;;20.40;83.30;;;;;;4977501;28;20022;-88
2022/08/27 02:37:25;;;;;;;4.00;1.63;;;20.40;83.30;;;;;;4977811;28;20026;-88
2022/08/27 02:39:51;;;;;;;4.60;1.70;;;20.40;83.30;;;;;;4993991;28;20037;-88
2022/08/27 02:42:16;;;;;;;4.40;1.92;;;20.40;83.30;;;;;;4977568;28;20597;-88
2022/08/27 02:44:42;;;;;;;5.50;2.28;;;20.40;83.30;;;;;;4988306;28;20034;-88
2022/08/27 02:47:08;;;;;;;5.05;2.28;;;20.40;83.20;;;;;;4993406;28;20084;-88
2022/08/27 02:49:33;;;;;;;6.32;2.17;;;20.40;83.20;;;;;;4992457;28;20025;-88
2022/08/27 02:51:59;;;;;;;4.65;1.65;;;20.40;83.10;;;;;;4974781;28;20029;-88
2022/08/27 02:54:25;;;;;;;4.55;1.88;;;20.40;83.00;;;;;;4973950;28;20468;-88
2022/08/27 02:56:53;;;;;;;5.60;2.08;;;20.30;82.80;;;;;;4977647;28;20069;-89
2022/08/27 02:59:20;;;;;;;8.07;2.15;;;20.30;82.80;;;;;;5007148;28;20452;-88
2022/08/27 03:01:46;;;;;;;3.50;1.52;;;20.30;82.90;;;;;;4974141;28;20034;-89
2022/08/27 03:04:12;;;;;;;3.42;1.60;;;20.30;82.90;;;;;;4977356;28;20036;-88
2022/08/27 03:06:38;;;;;;;3.35;1.90;;;20.30;82.90;;;;;;4997270;28;20033;-88
2022/08/27 03:09:04;;;;;;;5.22;2.00;;;20.20;82.90;;;;;;4978378;28;20035;-88
2022/08/27 03:11:31;;;;;;;5.35;1.85;;;20.20;82.80;;;;;;4952901;28;20033;-89
2022/08/27 03:13:57;;;;;;;5.43;2.00;;;20.20;82.90;;;;;;4977623;28;20046;-89
2022/08/27 03:16:26;;;;;;;5.53;1.90;;;20.20;82.90;;;;;;4993572;28;20018;-87
2022/08/27 03:18:52;;;;;;;3.28;1.67;;;20.20;83.00;;;;;;4985339;28;20093;-89
2022/08/27 03:21:21;;;;;;;4.50;2.00;;;20.20;83.00;;;;;;4977396;28;20443;-89
2022/08/27 03:23:47;;;;;;;3.85;1.70;;;20.20;83.10;;;;;;4977427;28;20133;-88
2022/08/27 03:26:14;;;;;;;4.88;1.70;;;20.20;83.10;;;;;;4976945;28;20054;-88
2022/08/27 03:28:40;;;;;;;4.32;1.83;;;20.10;83.10;;;;;;4977325;28;20033;-89
2022/08/27 03:31:12;;;;;;;3.47;1.75;;;20.10;83.00;;;;;;4990679;28;20375;-88
2022/08/27 03:33:39;;;;;;;5.28;1.70;;;20.10;83.00;;;;;;4977483;28;20027;-88
2022/08/27 03:36:06;;;;;;;4.25;1.70;;;20.10;82.90;;;;;;4973995;28;20026;-88
2022/08/27 03:38:41;;;;;;;4.78;1.90;;;20.10;82.80;;;;;;5040032;23;20140;-89
2022/08/27 03:41:07;;;;;;;5.57;2.05;;;20.10;82.90;;;;;;4996618;28;20018;-89
2022/08/27 03:43:34;;;;;;;5.32;1.95;;;20.10;82.90;;;;;;5030658;28;20028;-89
2022/08/27 03:46:00;;;;;;;5.13;2.10;;;20.00;82.80;;;;;;4980609;28;20060;-89
2022/08/27 03:48:27;;;;;;;6.22;2.45;;;20.00;83.40;;;;;;4989686;28;20050;-89
2022/08/27 03:50:53;;;;;;;3.25;1.70;;;20.00;82.80;;;;;;4988887;28;20475;-89
2022/08/27 03:53:21;;;;;;;4.68;2.03;;;20.00;82.70;;;;;;4999663;28;20403;-89
2022/08/27 03:55:48;;;;;;;5.45;2.10;;;20.00;82.70;;;;;;4999989;28;20033;-88
2022/08/27 03:58:14;;;;;;;5.93;1.98;;;20.00;82.70;;;;;;5016112;28;20108;-89
2022/08/27 04:00:40;;;;;;;5.10;2.17;;;20.00;82.70;;;;;;5002225;28;20041;-89
2022/08/27 04:03:06;;;;;;;5.50;2.10;;;20.00;82.80;;;;;;4991702;28;20061;-89
2022/08/27 04:05:33;;;;;;;3.08;1.83;;;20.00;82.90;;;;;;5016982;28;20026;-88
2022/08/27 04:07:59;;;;;;;5.00;2.30;;;19.90;82.90;;;;;;5003162;28;20033;-88
2022/08/27 04:10:26;;;;;;;5.03;2.10;;;19.90;82.90;;;;;;5036010;28;20028;-87
2022/08/27 04:13:10;;;;;;;2.75;1.80;;;19.90;82.90;;;;;;4990990;28;20044;-86
2022/08/27 04:15:35;;;;;;;4.95;2.10;;;19.90;83.00;;;;;;4987023;28;20466;-89
2022/08/27 04:18:01;;;;;;;7.22;2.20;;;19.90;83.00;;;;;;5031158;28;20076;-88
2022/08/27 04:20:27;;;;;;;4.13;1.90;;;19.90;83.10;;;;;;5002973;28;20050;-88
2022/08/27 04:22:53;;;;;;;4.00;2.00;;;19.90;83.20;;;;;;5019238;28;20110;-88
2022/08/27 04:25:19;;;;;;;4.75;2.10;;;19.90;83.20;;;;;;5002611;28;20051;-88
2022/08/27 04:27:44;;;;;;;5.28;2.25;;;19.80;83.20;;;;;;5019192;28;20056;-88
2022/08/27 04:30:14;;;;;;;5.45;2.20;;;19.80;83.20;;;;;;4983246;28;20463;-88
2022/08/27 04:32:40;;;;;;;5.28;2.20;;;19.80;83.20;;;;;;4985915;28;20026;-88
2022/08/27 04:35:06;;;;;;;3.47;1.75;;;19.80;83.20;;;;;;5014645;28;20532;-89
2022/08/27 04:37:32;;;;;;;4.13;1.80;;;19.80;83.30;;;;;;5008301;28;20137;-89
2022/08/27 04:39:58;;;;;;;4.68;2.17;;;19.80;83.30;;;;;;4999427;28;20029;-88
2022/08/27 04:42:24;;;;;;;5.55;2.40;;;19.80;83.30;;;;;;5018928;28;20045;-89
2022/08/27 04:44:52;;;;;;;3.85;1.92;;;19.80;83.30;;;;;;4988985;28;20100;-89
2022/08/27 04:47:18;;;;;;;5.95;2.53;;;19.80;83.40;;;;;;5015503;28;20025;-89
2022/08/27 04:49:43;;;;;;;7.22;2.75;;;19.70;83.30;;;;;;5002913;28;20092;-88
2022/08/27 04:52:09;;;;;;;4.35;2.33;;;19.70;83.30;;;;;;5018614;28;20014;-89
2022/08/27 04:54:35;;;;;;;4.95;2.28;;;19.70;83.40;;;;;;5019633;28;20048;-90
2022/08/27 04:57:04;;;;;;;6.28;2.55;;;19.70;83.40;;;;;;4999473;28;20026;-89
2022/08/27 04:59:30;;;;;;;5.05;2.10;;;19.70;83.40;;;;;;4989035;28;20025;-89
2022/08/27 05:01:57;;;;;;;5.35;2.35;;;19.70;83.40;;;;;;4999410;28;20074;-89
2022/08/27 05:04:22;;;;;;;4.57;2.03;;;19.70;83.40;;;;;;5017161;28;20021;-89
2022/08/27 05:06:49;;;;;;;5.90;2.28;;;19.60;83.50;;;;;;5001861;28;20112;-89
2022/08/27 05:09:16;;;;;;;5.10;2.20;;;19.60;83.60;;;;;;5002300;28;20504;-88
2022/08/27 05:11:43;;;;;;;3.83;2.22;;;19.60;83.70;;;;;;5017589;28;20485;-89
2022/08/27 05:14:10;;;;;;;5.80;2.80;;;19.60;83.70;;;;;;5007108;28;20026;-93
2022/08/27 05:16:37;;;;;;;6.82;3.33;;;19.60;83.80;;;;;;5030325;28;20017;-93
2022/08/27 05:19:05;;;;;;;5.50;2.35;;;19.60;83.80;;;;;;5029441;28;20029;-93
2022/08/27 05:21:33;;;;;;;7.78;2.22;;;19.60;83.90;;;;;;5028101;28;20026;-94
2022/08/27 05:24:04;;;;;;;7.68;2.40;;;19.50;83.90;;;;;;5024775;28;20531;-93
2022/08/27 05:26:31;;;;;;;6.97;2.50;;;19.50;84.00;;;;;;5025207;28;20029;-93
2022/08/27 05:29:01;;;;;;;5.82;2.20;;;19.50;84.10;;;;;;5025466;28;20040;-93
2022/08/27 05:31:28;;;;;;;4.13;1.90;;;19.50;84.30;;;;;;5024984;28;20029;-93
2022/08/27 05:33:57;;;;;;;9.73;3.25;;;19.50;84.40;;;;;;5026475;28;20084;-94
2022/08/27 05:36:26;;;;;;;5.45;2.33;;;19.50;84.50;;;;;;5014131;28;20026;-93
2022/08/27 05:38:53;;;;;;;4.85;2.10;;;19.50;84.60;;;;;;5017067;28;20045;-89
2022/08/27 05:41:26;;;;;;;4.95;2.28;;;19.40;84.70;;;;;;4999999;28;20087;-89
2022/08/27 05:43:52;;;;;;;5.25;2.40;;;19.40;84.80;;;;;;5004654;28;20378;-89
2022/08/27 05:46:21;;;;;;;5.43;2.30;;;19.40;84.80;;;;;;5017952;28;20029;-89
2022/08/27 05:48:47;;;;;;;6.55;2.05;;;19.40;84.90;;;;;;5030414;28;20022;-89
2022/08/27 05:51:20;;;;;;;3.05;1.85;;;19.40;84.90;;;;;;5034172;28;20029;-89
2022/08/27 05:53:46;;;;;;;3.60;2.10;;;19.40;85.00;;;;;;5017872;28;20018;-89
2022/08/27 05:56:23;;;;;;;3.80;2.00;;;19.40;85.10;;;;;;4985410;28;20025;-88
2022/08/27 06:01:37;;;;;;;5.20;2.28;;;19.40;85.20;;;;;;5035694;28;20044;-88
2022/08/27 06:04:06;;;;;;;4.90;2.47;;;19.40;85.30;;;;;;5017406;28;20048;-89
2022/08/27 06:06:37;;;;;;;5.50;2.20;;;19.40;85.20;;;;;;5017558;28;20060;-89
2022/08/27 06:09:05;;;;;;;4.85;2.05;;;19.40;85.40;;;;;;5023795;28;20116;-93
2022/08/27 06:11:30;;;;;;;3.55;2.05;;;19.40;85.40;;;;;;5024221;28;20029;-89
2022/08/27 06:13:56;;;;;;;5.32;2.10;;;19.40;85.40;;;;;;5002674;28;20490;-88
2022/08/27 06:16:23;;;;;;;5.30;2.20;;;19.40;85.50;;;;;;5001887;28;20117;-89
2022/08/27 06:18:49;;;;;;;3.92;2.00;;;19.50;85.60;;;;;;5018241;28;20026;-89
2022/08/27 06:21:16;;;;;;;4.38;2.15;;;19.50;85.70;;;;;;5018363;28;20112;-89
2022/08/27 06:23:42;;;;;;;9.02;2.20;;;19.50;85.80;;;;;;4988981;28;20034;-88
2022/08/27 06:26:13;;;;;;;4.82;2.10;;;19.50;85.90;;;;;;5001514;28;20079;-88
2022/08/27 06:28:40;;;;;;;5.57;2.40;;;19.50;86.00;;;;;;5017906;28;20045;-89
2022/08/27 06:31:12;;;;;;;5.38;2.22;;;19.50;86.00;;;;;;5018067;28;20022;-88
2022/08/27 06:33:39;;;;;;;4.65;2.00;;;19.50;86.10;;;;;;5018175;28;20079;-87
2022/08/27 06:36:08;;;;;;;4.10;2.10;;;19.50;86.10;;;;;;5017864;28;20462;-88
2022/08/27 06:38:35;;;;;;;4.45;2.10;;;19.50;86.10;;;;;;5000719;28;20136;-89
2022/08/27 06:41:04;;;;;;;4.28;2.10;;;19.50;86.10;;;;;;5015477;28;20084;-88
2022/08/27 06:43:29;;;;;;;4.13;2.17;;;19.60;86.10;;;;;;5017189;28;20112;-89
2022/08/27 06:45:55;;;;;;;4.00;1.70;;;19.60;86.30;;;;;;4981446;28;20542;-88
2022/08/27 06:48:21;;;;;;;4.70;1.90;;;19.60;86.40;;;;;;5017218;28;20025;-89
2022/08/27 06:50:47;;;;;;;5.25;1.65;;;19.60;86.40;;;;;;5001029;28;20482;-88
2022/08/27 06:53:13;;;;;;;4.75;1.67;;;19.60;86.30;;;;;;5016571;28;20056;-88
2022/08/27 06:55:46;;;;;;;5.30;2.00;;;19.70;86.20;;;;;;5017150;28;20032;-88
2022/08/27 06:58:14;;;;;;;3.25;1.80;;;19.70;86.20;;;;;;5017372;28;20030;-89
2022/08/27 07:00:41;;;;;;;3.50;1.80;;;19.70;86.10;;;;;;5001438;28;20052;-89
2022/08/27 07:03:07;;;;;;;6.32;1.60;;;19.70;86.00;;;;;;5001145;28;20025;-89
2022/08/27 07:05:35;;;;;;;2.85;1.58;;;19.70;86.10;;;;;;5014941;28;20081;-89
2022/08/27 07:08:01;;;;;;;5.00;1.83;;;19.80;86.70;;;;;;5011889;28;20033;-87
2022/08/27 07:10:27;;;;;;;3.85;1.42;;;19.80;86.00;;;;;;5015633;28;20025;-89
2022/08/27 07:12:53;;;;;;;4.93;1.60;;;19.90;85.90;;;;;;4999079;28;20108;-88
2022/08/27 07:15:20;;;;;;;2.15;1.30;;;19.90;85.80;;;;;;4995751;28;20029;-88
2022/08/27 07:17:45;;;;;;;3.13;1.50;;;19.90;85.70;;;;;;4990957;28;20033;-88
2022/08/27 07:20:12;;;;;;;4.47;1.67;;;20.00;85.80;;;;;;4999139;28;20122;-88
2022/08/27 07:22:39;;;;;;;3.95;2.03;;;20.00;85.60;;;;;;4999976;28;20083;-88
2022/08/27 07:25:08;;;;;;;3.85;1.70;;;20.10;85.50;;;;;;5013202;28;20025;-88
2022/08/27 07:27:34;;;;;;;6.65;3.38;;;20.10;85.40;;;;;;5000371;28;20029;-87
2022/08/27 07:30:00;;;;;;;3.67;2.50;;;20.10;85.40;;;;;;5008670;28;20021;-87
2022/08/27 07:32:26;;;;;;;5.15;2.33;;;20.20;85.40;;;;;;4987426;28;20351;-91
2022/08/27 07:34:51;;;;;;;5.95;2.70;;;20.30;85.40;;;;;;5024535;28;20109;-90
2022/08/27 07:37:17;;;;;;;14.50;7.50;;;20.30;85.30;;;;;;5025025;28;20048;-90
2022/08/27 07:39:43;;;;;;;48.72;31.27;;;20.30;85.20;;;;;;5021409;28;20498;-89
2022/08/27 07:44:53;;;;;;;18.38;12.68;;;20.50;85.10;;;;;;5025776;28;20032;-89
2022/08/27 07:47:19;;;;;;;13.95;8.63;;;20.50;85.00;;;;;;4989394;28;20045;-87
2022/08/27 07:49:44;;;;;;;10.00;6.85;;;20.60;84.80;;;;;;5004391;28;20112;-88
2022/08/27 07:52:11;;;;;;;9.52;5.28;;;20.70;84.60;;;;;;5002587;28;20061;-88
2022/08/27 07:54:37;;;;;;;7.50;3.67;;;20.70;84.40;;;;;;5015156;28;20026;-89
2022/08/27 07:57:03;;;;;;;9.68;6.30;;;20.80;84.00;;;;;;5000920;28;20438;-88
2022/08/27 07:59:29;;;;;;;5.75;3.33;;;20.90;84.00;;;;;;4985762;28;20021;-89
2022/08/27 08:01:55;;;;;;;5.45;2.20;;;20.90;83.90;;;;;;5000838;28;20391;-89
2022/08/27 08:04:21;;;;;;;3.83;1.58;;;21.00;83.60;;;;;;4999656;28;20030;-89
2022/08/27 08:06:48;;;;;;;4.22;1.50;;;21.10;83.40;;;;;;5008361;28;20029;-91
2022/08/27 08:09:14;;;;;;;2.70;1.20;;;21.20;83.40;;;;;;5009521;28;20421;-93
2022/08/27 08:11:40;;;;;;;3.15;1.30;;;21.20;83.60;;;;;;5041269;28;20021;-93
2022/08/27 08:14:06;;;;;;;4.07;1.30;;;21.30;82.80;;;;;;4992837;28;20032;-90
2022/08/27 08:16:31;;;;;;;3.95;1.05;;;21.40;82.50;;;;;;5007971;28;20439;-93
2022/08/27 08:18:59;;;;;;;54.90;33.30;;;21.50;82.10;;;;;;4989005;28;20080;-93
2022/08/27 08:21:25;;;;;;;141.80;55.60;;;21.50;81.70;;;;;;4989309;28;20036;-92
2022/08/27 08:23:50;;;;;;;246.82;80.85;;;21.60;81.50;;;;;;4998720;28;20022;-93
2022/08/27 08:26:17;;;;;;;120.15;41.38;;;21.70;81.60;;;;;;4996316;28;20060;-91
2022/08/27 08:28:43;;;;;;;60.45;24.35;;;21.80;81.30;;;;;;5006185;28;20030;-92
2022/08/27 08:31:09;;;;;;;82.60;43.03;;;21.90;80.90;;;;;;5023991;28;20017;-92
2022/08/27 08:33:35;;;;;;;39.38;21.45;;;22.00;80.50;;;;;;5004733;28;20037;-91
2022/08/27 08:36:10;;;;;;;24.85;14.02;;;22.10;80.00;;;;;;5022696;28;20433;-89
2022/08/27 08:38:37;;;;;;;52.08;29.17;;;22.20;79.60;;;;;;5011699;28;20073;-91
2022/08/27 08:41:05;;;;;;;44.08;22.95;;;22.30;79.30;;;;;;5018872;28;20057;-90
2022/08/27 08:43:33;;;;;;;24.20;12.65;;;22.40;79.10;;;;;;5019391;28;20238;-91
2022/08/27 08:46:16;;;;;;;11.55;6.78;;;22.40;78.70;;;;;;5020603;28;20056;-91
2022/08/27 08:48:46;;;;;;;9.68;4.38;;;22.50;78.20;;;;;;5020105;28;20037;-91
2022/08/27 08:51:39;;;;;;;6.95;3.30;;;22.60;77.90;;;;;;5017174;28;20021;-90
2022/08/27 08:54:09;;;;;;;3.55;1.83;;;22.70;77.80;;;;;;5020450;28;20017;-91
2022/08/27 08:56:46;;;;;;;5.07;2.95;;;22.70;77.60;;;;;;5017490;28;20033;-91
2022/08/27 08:59:30;;;;;;;79.93;43.00;;;22.80;77.40;;;;;;5021803;28;20117;-91
2022/08/27 09:01:57;;;;;;;50.33;30.95;;;22.90;77.70;;;;;;5021196;28;20021;-89
2022/08/27 09:04:24;;;;;;;22.80;13.57;;;23.00;77.70;;;;;;5005782;28;20029;-91
2022/08/27 09:07:08;;;;;;;14.52;8.50;;;23.10;77.80;;;;;;5022737;28;20029;-91
2022/08/27 09:09:38;;;;;;;17.80;9.45;;;23.10;77.00;;;;;;5021997;28;20106;-91
2022/08/27 09:12:13;;;;;;;15.87;9.80;;;23.20;77.30;;;;;;5022854;28;20024;-91
2022/08/27 09:14:42;;;;;;;12.68;7.78;;;23.30;77.30;;;;;;5022827;28;20029;-91
2022/08/27 09:17:08;;;;;;;55.03;29.85;;;23.40;77.00;;;;;;5021820;28;20021;-92
2022/08/27 09:19:34;;;;;;;50.92;28.02;;;23.50;77.10;;;;;;5004699;28;20033;-90
2022/08/27 09:22:30;;;;;;;41.30;24.30;;;23.60;76.70;;;;;;5004765;28;20099;-88
2022/08/27 09:25:07;;;;;;;17.13;8.00;;;23.60;76.60;;;;;;5021324;28;20038;-91
2022/08/27 09:27:37;;;;;;;6.95;3.53;;;23.70;76.00;;;;;;5020885;28;20426;-91
2022/08/27 09:30:24;;;;;;;4.25;2.00;;;23.70;75.40;;;;;;5020859;28;20021;-92
2022/08/27 09:32:56;;;;;;;5.85;1.85;;;23.80;75.30;;;;;;5000291;28;20100;-91
2022/08/27 09:35:25;;;;;;;3.47;1.55;;;23.90;75.00;;;;;;5000581;28;20018;-90
2022/08/27 09:37:54;;;;;;;3.63;1.58;;;23.90;74.50;;;;;;5006878;28;20046;-89
2022/08/27 09:40:37;;;;;;;30.40;15.73;;;23.90;74.30;;;;;;5020376;28;20060;-89
2022/08/27 09:43:18;;;;;;;45.90;23.15;;;24.00;74.60;;;;;;5008370;28;20455;-89
2022/08/27 09:45:58;;;;;;;29.77;14.40;;;24.00;74.50;;;;;;5019281;28;20033;-89
2022/08/27 09:48:26;;;;;;;18.42;9.38;;;24.10;74.10;;;;;;5019081;28;20032;-89
2022/08/27 09:51:20;;;;;;;11.65;5.05;;;24.10;73.90;;;;;;5020970;28;20018;-90
2022/08/27 09:54:03;;;;;;;8.63;4.00;;;24.20;73.90;;;;;;5014357;28;20533;-91
2022/08/27 09:56:38;;;;;;;33.40;15.80;;;24.30;73.20;;;;;;4988773;28;20036;-91
2022/08/27 09:59:34;;;;;;;31.88;14.45;;;24.30;72.60;;;;;;5025368;28;20026;-92
2022/08/27 10:02:21;;;;;;;27.90;14.35;;;24.40;72.50;;;;;;5024695;28;20033;-92
2022/08/27 10:04:52;;;;;;;18.60;8.20;;;24.50;72.50;;;;;;5024828;28;20030;-94
2022/08/27 10:07:40;;;;;;;7.53;3.75;;;24.50;72.60;;;;;;5019804;28;20114;-90
2022/08/27 10:10:19;;;;;;;8.35;3.53;;;24.60;73.60;;;;;;5015884;28;20014;-93
2022/08/27 10:13:05;;;;;;;6.20;2.22;;;24.70;72.80;;;;;;5018125;28;20064;-92
2022/08/27 10:15:52;;;;;;;7.65;2.00;;;24.80;72.50;;;;;;5017968;28;20032;-91
2022/08/27 10:18:25;;;;;;;5.13;1.75;;;24.80;72.10;;;;;;5014972;28;20030;-90
2022/08/27 10:21:33;;;;;;;4.85;2.70;;;24.80;71.80;;;;;;5014924;28;20029;-89
2022/08/27 10:23:59;;;;;;;40.00;18.45;;;24.90;71.70;;;;;;5024902;28;20037;-86
2022/08/27 10:26:53;;;;;;;11.77;4.88;;;24.90;71.70;;;;;;5008714;28;20022;-85
2022/08/27 10:29:45;;;;;;;19.90;10.82;;;24.90;71.40;;;;;;5034593;28;20021;-86
2022/08/27 10:32:24;;;;;;;62.15;26.58;;;24.90;71.10;;;;;;5016535;28;20036;-86
2022/08/27 10:35:08;;;;;;;53.08;24.75;;;25.00;70.80;;;;;;5031220;28;20013;-85
2022/08/27 10:37:44;;;;;;;29.25;12.50;;;25.00;70.70;;;;;;5012217;28;20076;-87
2022/08/27 10:40:35;;;;;;;22.63;12.35;;;25.00;70.60;;;;;;5013287;28;20033;-86
2022/08/27 10:43:07;;;;;;;21.00;11.65;;;25.00;70.50;;;;;;4986919;28;20030;-87
2022/08/27 10:46:09;;;;;;;16.42;8.35;;;25.00;70.30;;;;;;5016921;28;20030;-87
2022/08/27 10:48:43;;;;;;;8.25;2.83;;;25.10;70.40;;;;;;5050051;28;20084;-89
2022/08/27 10:51:26;;;;;;;34.88;4.82;;;25.10;70.30;;;;;;5016954;28;20017;-89
2022/08/27 10:54:08;;;;;;;6.68;2.28;;;25.10;69.80;;;;;;5005863;28;20116;-88
2022/08/27 10:57:00;;;;;;;8.60;2.92;;;25.10;69.40;;;;;;5029555;28;20018;-89
2022/08/27 10:59:28;;;;;;;35.67;4.60;;;25.10;68.90;;;;;;5016634;28;20028;-89
2022/08/27 11:02:24;;;;;;;17.73;3.53;;;25.10;68.50;;;;;;5016349;28;20061;-85
2022/08/27 11:04:55;;;;;;;6.13;2.03;;;25.20;68.20;;;;;;5047362;28;20029;-85
2022/08/27 11:07:31;;;;;;;3.95;2.15;;;25.20;68.40;;;;;;5013796;28;20021;-84
2022/08/27 11:10:05;;;;;;;26.25;12.32;;;25.20;68.80;;;;;;5016131;28;20095;-84
2022/08/27 11:12:35;;;;;;;16.27;7.13;;;25.30;69.10;;;;;;5011751;28;20428;-85
2022/08/27 11:15:25;;;;;;;11.77;4.15;;;25.30;69.00;;;;;;5020145;28;20100;-85
2022/08/27 11:18:02;;;;;;;4.53;1.92;;;25.30;68.90;;;;;;5019686;28;20475;-84
2022/08/27 11:20:49;;;;;;;5.53;1.90;;;25.40;69.70;;;;;;5020508;28;20018;-84
2022/08/27 11:23:20;;;;;;;3.63;1.60;;;25.40;69.30;;;;;;5019451;28;20467;-83
2022/08/27 11:26:12;;;;;;;4.22;2.28;;;25.40;69.10;;;;;;5019360;28;20494;-84
2022/08/27 11:28:48;;;;;;;13.02;9.80;;;25.50;69.20;;;;;;5017311;28;20110;-86
2022/08/27 11:31:40;;;;;;;18.50;11.15;;;25.50;69.10;;;;;;5019209;28;20024;-86
2022/08/27 11:34:13;;;;;;;12.93;9.10;;;25.50;68.80;;;;;;5036511;28;20017;-85
2022/08/27 11:36:53;;;;;;;14.05;8.25;;;25.50;68.40;;;;;;5019923;28;20130;-85
2022/08/27 11:40:16;;;;;;;13.20;8.73;;;25.50;68.30;;;;;;5020261;28;20033;-86
2022/08/27 11:42:47;;;;;;;16.30;10.95;;;25.50;67.90;;;;;;4998043;28;20033;-85
2022/08/27 11:45:58;;;;;;;8.60;4.65;;;25.60;67.90;;;;;;5020272;28;20031;-85
2022/08/27 11:48:30;;;;;;;4.90;2.28;;;25.60;67.40;;;;;;4922279;29;20038;-88
2022/08/27 11:51:04;;;;;;;2.95;1.67;;;25.60;67.50;;;;;;5008760;28;20033;-87
2022/08/27 11:53:36;;;;;;;5.50;2.50;;;25.60;67.20;;;;;;5020131;28;20014;-86
2022/08/27 11:56:14;;;;;;;3.65;1.30;;;25.70;67.20;;;;;;5019762;28;20028;-86
2022/08/27 11:58:41;;;;;;;2.28;1.20;;;25.70;66.80;;;;;;5028156;28;20092;-86
2022/08/27 12:01:28;;;;;;;2.97;1.25;;;25.80;66.30;;;;;;5001129;28;20451;-87
2022/08/27 12:04:32;;;;;;;3.95;1.50;;;25.80;66.20;;;;;;5019887;28;20371;-85
2022/08/27 12:07:23;;;;;;;5.75;1.30;;;25.80;66.30;;;;;;5019475;28;20051;-88
2022/08/27 12:09:55;;;;;;;2.55;1.20;;;25.80;66.50;;;;;;5017971;28;20029;-87
2022/08/27 12:12:31;;;;;;;2.90;1.23;;;25.80;66.40;;;;;;5014985;28;20029;-86
2022/08/27 12:15:05;;;;;;;4.25;1.83;;;25.80;66.40;;;;;;5020588;28;20022;-84
2022/08/27 12:17:39;;;;;;;5.10;1.58;;;25.90;66.30;;;;;;5005151;28;20609;-86
2022/08/27 12:20:29;;;;;;;5.60;1.80;;;25.90;66.00;;;;;;5038947;28;20018;-86
2022/08/27 12:25:56;;;;;;;4.65;1.52;;;25.90;65.80;;;;;;5038118;28;20040;-87
2022/08/27 12:31:47;;;;;;;3.13;1.48;;;25.90;65.60;;;;;;5038135;28;20110;-85
2022/08/27 12:34:18;;;;;;;3.78;1.35;;;25.90;65.40;;;;;;5019686;28;20095;-86
2022/08/27 12:36:47;;;;;;;3.50;1.33;;;25.90;65.40;;;;;;5020183;28;20017;-86
2022/08/27 12:39:18;;;;;;;2.85;1.58;;;25.90;65.20;;;;;;5004180;28;20474;-87
2022/08/27 12:41:47;;;;;;;3.15;1.40;;;25.90;64.90;;;;;;5019791;28;20117;-87
2022/08/27 12:44:24;;;;;;;3.33;1.45;;;25.90;64.80;;;;;;5018389;28;20083;-86
2022/08/27 12:46:56;;;;;;;3.47;1.55;;;26.00;64.80;;;;;;5015232;28;20026;-88
2022/08/27 12:49:26;;;;;;;3.85;1.30;;;26.00;64.60;;;;;;5019954;28;20026;-87
2022/08/27 12:51:53;;;;;;;2.77;1.33;;;26.00;64.60;;;;;;5019879;28;20033;-88
2022/08/27 12:54:34;;;;;;;3.72;1.50;;;26.00;64.20;;;;;;5019678;28;20362;-88
2022/08/27 12:57:26;;;;;;;4.60;1.70;;;26.10;64.00;;;;;;5020145;28;20486;-86
2022/08/27 13:00:06;;;;;;;4.72;1.88;;;26.10;63.80;;;;;;5020368;28;20043;-88
2022/08/27 13:02:48;;;;;;;4.10;1.77;;;26.10;63.90;;;;;;5020216;28;20022;-88
2022/08/27 13:05:18;;;;;;;3.83;1.60;;;26.10;63.90;;;;;;5020107;28;20425;-88
2022/08/27 13:08:03;;;;;;;3.80;1.50;;;26.10;63.70;;;;;;5019791;28;20018;-88
2022/08/27 13:10:30;;;;;;;2.90;1.08;;;26.10;63.80;;;;;;5019470;28;20209;-87
2022/08/27 13:13:16;;;;;;;3.78;1.42;;;26.20;63.70;;;;;;5019781;28;20364;-88
2022/08/27 13:15:59;;;;;;;3.35;1.27;;;26.20;63.80;;;;;;5019156;28;20052;-88
2022/08/27 13:18:26;;;;;;;4.13;1.45;;;26.20;63.70;;;;;;5019577;28;20494;-87